sensor_id;sensor_type;location;lat;lon;timestamp;temperature;humidity
40053;DHT22;25758;48.200;16.338;2022-12-18T00:00:20;1.30;99.90
40053;DHT22;25758;48.200;16.338;2022-12-18T00:02:46;1.30;99.90
40053;DHT22;25758;48.200;16.338;2022-12-18T00:08:19;1.30;99.90
40053;DHT22;25758;48.200;16.338;2022-12-18T00:10:45;1.30;99.90
40053;DHT22;25758;48.200;16.338;2022-12-18T00:13:11;1.20;99.90
40053;DHT22;25758;48.200;16.338;2022-12-18T00:19:21;1.20;99.90
40053;DHT22;25758;48.200;16.338;2022-12-18T00:21:46;1.20;99.90
40053;DHT22;25758;48.200;16.338;2022-12-18T00:24:12;1.20;99.90
40053;DHT22;25758;48.200;16.338;2022-12-18T00:30:31;1.10;99.90
40053;DHT22;25758;48.200;16.338;2022-12-18T00:33:17;1.10;99.90
40053;DHT22;25758;48.200;16.338;2022-12-18T00:35:43;1.10;99.90
40053;DHT22;25758;48.200;16.338;2022-12-18T00:38:09;1.10;99.90
40053;DHT22;25758;48.200;16.338;2022-12-18T00:40:54;1.10;99.90
40053;DHT22;25758;48.200;16.338;2022-12-18T00:43:20;1.10;99.90
40053;DHT22;25758;48.200;16.338;2022-12-18T00:45:46;1.00;99.90
40053;DHT22;25758;48.200;16.338;2022-12-18T00:48:23;1.00;99.90
40053;DHT22;25758;48.200;16.338;2022-12-18T00:50:49;1.00;99.90
40053;DHT22;25758;48.200;16.338;2022-12-18T00:53:16;1.00;99.90
40053;DHT22;25758;48.200;16.338;2022-12-18T00:55:42;1.00;99.90
40053;DHT22;25758;48.200;16.338;2022-12-18T00:58:09;1.00;99.90
40053;DHT22;25758;48.200;16.338;2022-12-18T01:22:08;0.80;99.90
40053;DHT22;25758;48.200;16.338;2022-12-18T01:24:55;0.70;99.90
40053;DHT22;25758;48.200;16.338;2022-12-18T01:27:20;0.70;99.90
40053;DHT22;25758;48.200;16.338;2022-12-18T01:29:46;0.60;99.90
40053;DHT22;25758;48.200;16.338;2022-12-18T01:32:11;0.60;99.90
40053;DHT22;25758;48.200;16.338;2022-12-18T01:35:12;0.60;99.90
40053;DHT22;25758;48.200;16.338;2022-12-18T01:37:43;0.60;99.90
40053;DHT22;25758;48.200;16.338;2022-12-18T01:40:10;0.50;99.90
40053;DHT22;25758;48.200;16.338;2022-12-18T01:42:35;0.50;99.90
40053;DHT22;25758;48.200;16.338;2022-12-18T01:45:05;0.50;99.90
40053;DHT22;25758;48.200;16.338;2022-12-18T01:50:29;0.40;99.90
40053;DHT22;25758;48.200;16.338;2022-12-18T02:00:11;0.30;99.90
40053;DHT22;25758;48.200;16.338;2022-12-18T02:05:49;0.30;99.90
40053;DHT22;25758;48.200;16.338;2022-12-18T02:08:40;0.20;99.90
40053;DHT22;25758;48.200;16.338;2022-12-18T02:11:39;0.20;99.90
40053;DHT22;25758;48.200;16.338;2022-12-18T02:17:05;0.10;99.90
40053;DHT22;25758;48.200;16.338;2022-12-18T02:22:31;0.00;99.90
40053;DHT22;25758;48.200;16.338;2022-12-18T02:30:41;0.00;99.90
40053;DHT22;25758;48.200;16.338;2022-12-18T02:33:08;0.30;99.90
40053;DHT22;25758;48.200;16.338;2022-12-18T02:35:37;0.20;99.90
40053;DHT22;25758;48.200;16.338;2022-12-18T02:38:33;0.10;99.90
40053;DHT22;25758;48.200;16.338;2022-12-18T02:41:02;0.10;99.90
40053;DHT22;25758;48.200;16.338;2022-12-18T02:43:29;0.20;99.90
40053;DHT22;25758;48.200;16.338;2022-12-18T02:45:59;0.30;99.90
40053;DHT22;25758;48.200;16.338;2022-12-18T02:48:50;0.10;99.90
40053;DHT22;25758;48.200;16.338;2022-12-18T02:51:25;0.10;99.90
40053;DHT22;25758;48.200;16.338;2022-12-18T02:54:41;0.10;99.90
40053;DHT22;25758;48.200;16.338;2022-12-18T03:00:06;0.10;99.90
40053;DHT22;25758;48.200;16.338;2022-12-18T03:03:06;0.10;99.90
40053;DHT22;25758;48.200;16.338;2022-12-18T03:14:34;0.10;99.90
40053;DHT22;25758;48.200;16.338;2022-12-18T03:17:06;0.10;99.90
40053;DHT22;25758;48.200;16.338;2022-12-18T03:19:34;0.30;99.90
40053;DHT22;25758;48.200;16.338;2022-12-18T03:22:02;0.40;99.90
40053;DHT22;25758;48.200;16.338;2022-12-18T03:27:46;0.00;99.90
40053;DHT22;25758;48.200;16.338;2022-12-18T03:30:14;0.10;99.90
40053;DHT22;25758;48.200;16.338;2022-12-18T03:32:42;0.20;99.90
40053;DHT22;25758;48.200;16.338;2022-12-18T03:35:12;0.10;99.90
40053;DHT22;25758;48.200;16.338;2022-12-18T03:37:41;0.30;99.90
40053;DHT22;25758;48.200;16.338;2022-12-18T03:40:07;0.00;99.90
40053;DHT22;25758;48.200;16.338;2022-12-18T03:42:46;0.10;99.90
40053;DHT22;25758;48.200;16.338;2022-12-18T03:52:11;0.10;99.90
40053;DHT22;25758;48.200;16.338;2022-12-18T03:54:42;0.00;99.90
40053;DHT22;25758;48.200;16.338;2022-12-18T03:57:13;0.10;99.90
40053;DHT22;25758;48.200;16.338;2022-12-18T03:59:40;0.00;99.90
40053;DHT22;25758;48.200;16.338;2022-12-18T04:02:07;0.10;99.90
40053;DHT22;25758;48.200;16.338;2022-12-18T04:11:26;0.00;99.90
40053;DHT22;25758;48.200;16.338;2022-12-18T04:13:55;0.10;99.90
40053;DHT22;25758;48.200;16.338;2022-12-18T04:16:48;0.00;99.90
40053;DHT22;25758;48.200;16.338;2022-12-18T04:19:15;0.00;99.90
40053;DHT22;25758;48.200;16.338;2022-12-18T04:21:41;0.00;99.90
40053;DHT22;25758;48.200;16.338;2022-12-18T04:24:07;0.10;99.90
40053;DHT22;25758;48.200;16.338;2022-12-18T04:26:46;0.00;99.90
40053;DHT22;25758;48.200;16.338;2022-12-18T04:29:12;0.00;99.90
40053;DHT22;25758;48.200;16.338;2022-12-18T04:31:37;0.00;99.90
40053;DHT22;25758;48.200;16.338;2022-12-18T04:37:30;0.00;99.90
40053;DHT22;25758;48.200;16.338;2022-12-18T04:39:55;0.00;99.90
40053;DHT22;25758;48.200;16.338;2022-12-18T04:42:21;0.00;99.90
40053;DHT22;25758;48.200;16.338;2022-12-18T04:44:47;-0.10;99.90
40053;DHT22;25758;48.200;16.338;2022-12-18T04:47:12;0.00;99.90
40053;DHT22;25758;48.200;16.338;2022-12-18T04:49:38;0.10;99.90
40053;DHT22;25758;48.200;16.338;2022-12-18T04:52:03;0.00;99.90
40053;DHT22;25758;48.200;16.338;2022-12-18T04:54:29;-0.10;99.90
40053;DHT22;25758;48.200;16.338;2022-12-18T04:57:13;-0.10;99.90
40053;DHT22;25758;48.200;16.338;2022-12-18T04:59:39;-0.10;99.90
40053;DHT22;25758;48.200;16.338;2022-12-18T05:02:05;0.00;99.90
40053;DHT22;25758;48.200;16.338;2022-12-18T05:11:23;-0.30;99.90
40053;DHT22;25758;48.200;16.338;2022-12-18T05:13:49;-0.50;99.90
40053;DHT22;25758;48.200;16.338;2022-12-18T05:16:15;-0.30;99.90
40053;DHT22;25758;48.200;16.338;2022-12-18T05:18:41;-0.50;99.90
40053;DHT22;25758;48.200;16.338;2022-12-18T05:21:07;-0.50;99.90
40053;DHT22;25758;48.200;16.338;2022-12-18T05:23:32;-0.50;99.90
40053;DHT22;25758;48.200;16.338;2022-12-18T05:26:01;-0.60;99.90
40053;DHT22;25758;48.200;16.338;2022-12-18T05:28:30;-0.10;99.90
40053;DHT22;25758;48.200;16.338;2022-12-18T05:30:57;-0.70;99.90
40053;DHT22;25758;48.200;16.338;2022-12-18T05:33:24;-0.70;99.90
40053;DHT22;25758;48.200;16.338;2022-12-18T05:36:23;-0.70;99.90
40053;DHT22;25758;48.200;16.338;2022-12-18T05:38:49;-0.70;99.90
40053;DHT22;25758;48.200;16.338;2022-12-18T05:41:15;0.10;99.90
40053;DHT22;25758;48.200;16.338;2022-12-18T05:43:41;-0.50;99.90
40053;DHT22;25758;48.200;16.338;2022-12-18T05:46:08;-0.70;99.90
40053;DHT22;25758;48.200;16.338;2022-12-18T05:48:45;-0.80;99.90
40053;DHT22;25758;48.200;16.338;2022-12-18T05:51:13;-0.70;99.90
40053;DHT22;25758;48.200;16.338;2022-12-18T05:53:40;-0.80;99.90
40053;DHT22;25758;48.200;16.338;2022-12-18T05:56:09;-0.70;99.90
40053;DHT22;25758;48.200;16.338;2022-12-18T05:58:37;-0.80;99.90
40053;DHT22;25758;48.200;16.338;2022-12-18T06:01:12;-0.70;99.90
40053;DHT22;25758;48.200;16.338;2022-12-18T06:03:38;-0.70;99.90
40053;DHT22;25758;48.200;16.338;2022-12-18T06:06:11;-0.70;99.90
40053;DHT22;25758;48.200;16.338;2022-12-18T06:08:38;-0.70;99.90
40053;DHT22;25758;48.200;16.338;2022-12-18T06:11:04;-0.70;99.90
40053;DHT22;25758;48.200;16.338;2022-12-18T06:13:33;-0.70;99.90
40053;DHT22;25758;48.200;16.338;2022-12-18T06:16:03;-0.50;99.90
40053;DHT22;25758;48.200;16.338;2022-12-18T06:18:28;-0.40;99.90
40053;DHT22;25758;48.200;16.338;2022-12-18T06:20:55;-0.90;99.90
40053;DHT22;25758;48.200;16.338;2022-12-18T06:23:21;-0.90;99.90
40053;DHT22;25758;48.200;16.338;2022-12-18T06:29:16;-1.00;99.90
40053;DHT22;25758;48.200;16.338;2022-12-18T06:31:59;-1.00;99.90
40053;DHT22;25758;48.200;16.338;2022-12-18T06:34:25;-1.00;99.90
40053;DHT22;25758;48.200;16.338;2022-12-18T06:36:50;-1.00;99.90
40053;DHT22;25758;48.200;16.338;2022-12-18T06:42:36;-0.90;99.90
40053;DHT22;25758;48.200;16.338;2022-12-18T06:45:02;-0.90;99.90
40053;DHT22;25758;48.200;16.338;2022-12-18T06:47:28;-0.90;99.90
40053;DHT22;25758;48.200;16.338;2022-12-18T06:50:12;-0.70;99.90
40053;DHT22;25758;48.200;16.338;2022-12-18T06:52:38;-0.80;99.90
40053;DHT22;25758;48.200;16.338;2022-12-18T06:55:08;-0.80;99.90
40053;DHT22;25758;48.200;16.338;2022-12-18T06:57:34;-0.80;99.90
40053;DHT22;25758;48.200;16.338;2022-12-18T07:00:16;-0.80;99.90
40053;DHT22;25758;48.200;16.338;2022-12-18T07:02:44;-0.80;99.90
40053;DHT22;25758;48.200;16.338;2022-12-18T07:05:10;-0.80;99.90
40053;DHT22;25758;48.200;16.338;2022-12-18T07:07:35;-0.80;99.90
40053;DHT22;25758;48.200;16.338;2022-12-18T07:13:43;-0.70;99.90
40053;DHT22;25758;48.200;16.338;2022-12-18T07:16:26;-0.70;99.90
40053;DHT22;25758;48.200;16.338;2022-12-18T07:18:54;-0.70;99.90
40053;DHT22;25758;48.200;16.338;2022-12-18T07:21:21;-0.70;99.90
40053;DHT22;25758;48.200;16.338;2022-12-18T07:23:47;-0.60;99.90
40053;DHT22;25758;48.200;16.338;2022-12-18T07:26:16;-0.60;99.90
40053;DHT22;25758;48.200;16.338;2022-12-18T07:28:42;-0.60;99.90
40053;DHT22;25758;48.200;16.338;2022-12-18T07:31:17;-0.60;99.90
40053;DHT22;25758;48.200;16.338;2022-12-18T07:36:52;-0.60;99.90
40053;DHT22;25758;48.200;16.338;2022-12-18T07:39:17;-0.60;99.90
40053;DHT22;25758;48.200;16.338;2022-12-18T07:41:53;-0.50;99.90
40053;DHT22;25758;48.200;16.338;2022-12-18T07:45:03;-0.50;99.90
40053;DHT22;25758;48.200;16.338;2022-12-18T07:47:56;-0.50;99.90
40053;DHT22;25758;48.200;16.338;2022-12-18T07:50:21;-0.50;99.90
40053;DHT22;25758;48.200;16.338;2022-12-18T07:52:47;-0.50;99.90
40053;DHT22;25758;48.200;16.338;2022-12-18T07:58:51;-0.50;99.90
40053;DHT22;25758;48.200;16.338;2022-12-18T08:01:23;-0.50;99.90
40053;DHT22;25758;48.200;16.338;2022-12-18T08:03:49;-0.50;99.90
40053;DHT22;25758;48.200;16.338;2022-12-18T08:06:14;-0.40;99.90
40053;DHT22;25758;48.200;16.338;2022-12-18T08:08:42;-0.40;99.90
40053;DHT22;25758;48.200;16.338;2022-12-18T08:11:34;-0.40;99.90
40053;DHT22;25758;48.200;16.338;2022-12-18T08:13:59;-0.40;99.90
40053;DHT22;25758;48.200;16.338;2022-12-18T08:16:25;-0.40;99.90
40053;DHT22;25758;48.200;16.338;2022-12-18T08:22:22;-0.30;99.90
40053;DHT22;25758;48.200;16.338;2022-12-18T08:27:51;-0.20;99.90
40053;DHT22;25758;48.200;16.338;2022-12-18T08:30:17;-0.20;99.90
40053;DHT22;25758;48.200;16.338;2022-12-18T08:32:43;-0.20;99.90
40053;DHT22;25758;48.200;16.338;2022-12-18T08:35:09;-0.20;99.90
40053;DHT22;25758;48.200;16.338;2022-12-18T08:37:37;-0.10;99.90
40053;DHT22;25758;48.200;16.338;2022-12-18T08:40:03;-0.10;99.90
40053;DHT22;25758;48.200;16.338;2022-12-18T08:42:34;-0.10;99.90
40053;DHT22;25758;48.200;16.338;2022-12-18T08:45:19;0.10;99.90
40053;DHT22;25758;48.200;16.338;2022-12-18T08:47:44;-0.10;99.90
40053;DHT22;25758;48.200;16.338;2022-12-18T08:50:10;-0.10;99.90
40053;DHT22;25758;48.200;16.338;2022-12-18T08:52:37;0.00;99.90
40053;DHT22;25758;48.200;16.338;2022-12-18T08:55:03;0.00;99.90
40053;DHT22;25758;48.200;16.338;2022-12-18T09:01:05;-0.10;99.90
40053;DHT22;25758;48.200;16.338;2022-12-18T09:03:43;0.00;99.90
40053;DHT22;25758;48.200;16.338;2022-12-18T09:06:08;0.00;99.90
40053;DHT22;25758;48.200;16.338;2022-12-18T09:08:34;0.00;99.90
40053;DHT22;25758;48.200;16.338;2022-12-18T09:11:23;0.00;99.90
40053;DHT22;25758;48.200;16.338;2022-12-18T09:13:57;0.00;99.90
40053;DHT22;25758;48.200;16.338;2022-12-18T09:16:25;0.00;99.90
40053;DHT22;25758;48.200;16.338;2022-12-18T09:18:51;0.00;99.90
40053;DHT22;25758;48.200;16.338;2022-12-18T09:21:20;0.00;99.90
40053;DHT22;25758;48.200;16.338;2022-12-18T09:23:55;0.00;99.90
40053;DHT22;25758;48.200;16.338;2022-12-18T09:26:22;0.00;99.90
40053;DHT22;25758;48.200;16.338;2022-12-18T09:28:48;0.10;99.90
40053;DHT22;25758;48.200;16.338;2022-12-18T09:31:14;0.00;99.90
40053;DHT22;25758;48.200;16.338;2022-12-18T09:33:40;0.00;99.90
40053;DHT22;25758;48.200;16.338;2022-12-18T09:39:44;0.00;99.90
40053;DHT22;25758;48.200;16.338;2022-12-18T09:42:21;0.10;99.90
40053;DHT22;25758;48.200;16.338;2022-12-18T09:44:53;0.10;99.90
40053;DHT22;25758;48.200;16.338;2022-12-18T09:47:30;0.00;99.90
40053;DHT22;25758;48.200;16.338;2022-12-18T09:53:24;0.10;99.90
40053;DHT22;25758;48.200;16.338;2022-12-18T09:55:52;0.10;99.90
40053;DHT22;25758;48.200;16.338;2022-12-18T09:58:57;0.00;99.90
40053;DHT22;25758;48.200;16.338;2022-12-18T10:01:39;0.00;99.90
40053;DHT22;25758;48.200;16.338;2022-12-18T10:04:07;-0.10;99.90
40053;DHT22;25758;48.200;16.338;2022-12-18T10:06:44;-0.10;99.90
40053;DHT22;25758;48.200;16.338;2022-12-18T10:09:23;-0.10;99.90
40053;DHT22;25758;48.200;16.338;2022-12-18T10:12:17;0.00;99.90
40053;DHT22;25758;48.200;16.338;2022-12-18T10:15:04;0.00;99.90
40053;DHT22;25758;48.200;16.338;2022-12-18T10:17:45;0.00;99.90
40053;DHT22;25758;48.200;16.338;2022-12-18T10:20:47;0.00;99.90
40053;DHT22;25758;48.200;16.338;2022-12-18T10:26:10;0.00;99.90
40053;DHT22;25758;48.200;16.338;2022-12-18T10:28:37;0.00;99.90
40053;DHT22;25758;48.200;16.338;2022-12-18T10:31:23;0.10;99.90
40053;DHT22;25758;48.200;16.338;2022-12-18T10:33:51;0.00;99.90
40053;DHT22;25758;48.200;16.338;2022-12-18T10:36:18;0.10;99.90
40053;DHT22;25758;48.200;16.338;2022-12-18T10:38:45;0.10;99.90
40053;DHT22;25758;48.200;16.338;2022-12-18T10:47:34;0.00;99.90
40053;DHT22;25758;48.200;16.338;2022-12-18T10:50:01;0.00;99.90
40053;DHT22;25758;48.200;16.338;2022-12-18T10:52:27;0.00;99.90
40053;DHT22;25758;48.200;16.338;2022-12-18T10:55:21;-0.10;99.90
40053;DHT22;25758;48.200;16.338;2022-12-18T11:06:17;-0.20;99.90
40053;DHT22;25758;48.200;16.338;2022-12-18T11:11:24;-0.30;99.90
40053;DHT22;25758;48.200;16.338;2022-12-18T11:14:03;0.00;99.90
40053;DHT22;25758;48.200;16.338;2022-12-18T11:16:33;-0.40;99.90
40053;DHT22;25758;48.200;16.338;2022-12-18T11:22:01;-0.40;99.90
40053;DHT22;25758;48.200;16.338;2022-12-18T11:27:17;-0.30;99.90
40053;DHT22;25758;48.200;16.338;2022-12-18T11:29:50;-0.30;99.90
40053;DHT22;25758;48.200;16.338;2022-12-18T11:32:33;-0.20;99.90
40053;DHT22;25758;48.200;16.338;2022-12-18T11:41:50;-0.10;99.90
40053;DHT22;25758;48.200;16.338;2022-12-18T11:50:33;-0.10;99.90
40053;DHT22;25758;48.200;16.338;2022-12-18T11:53:15;0.00;99.90
40053;DHT22;25758;48.200;16.338;2022-12-18T12:34:26;0.00;99.90
40053;DHT22;25758;48.200;16.338;2022-12-18T12:40:19;0.00;99.90
40053;DHT22;25758;48.200;16.338;2022-12-18T12:49:21;0.10;99.90
40053;DHT22;25758;48.200;16.338;2022-12-18T13:06:04;0.10;99.90
40053;DHT22;25758;48.200;16.338;2022-12-18T13:08:57;0.10;99.90
40053;DHT22;25758;48.200;16.338;2022-12-18T13:11:44;0.10;99.90
40053;DHT22;25758;48.200;16.338;2022-12-18T13:24:24;0.10;99.90
40053;DHT22;25758;48.200;16.338;2022-12-18T13:26:51;0.10;99.90
40053;DHT22;25758;48.200;16.338;2022-12-18T13:29:45;0.00;99.90
40053;DHT22;25758;48.200;16.338;2022-12-18T13:39:33;0.00;99.90
40053;DHT22;25758;48.200;16.338;2022-12-18T13:49:20;0.10;99.90
40053;DHT22;25758;48.200;16.338;2022-12-18T14:01:51;0.10;99.90
40053;DHT22;25758;48.200;16.338;2022-12-18T14:14:32;0.00;99.90
40053;DHT22;25758;48.200;16.338;2022-12-18T14:16:57;0.00;99.90
40053;DHT22;25758;48.200;16.338;2022-12-18T14:19:27;0.00;99.90
40053;DHT22;25758;48.200;16.338;2022-12-18T14:21:53;0.00;99.90
40053;DHT22;25758;48.200;16.338;2022-12-18T14:24:21;-0.10;99.90
40053;DHT22;25758;48.200;16.338;2022-12-18T14:40:01;-0.20;99.90
40053;DHT22;25758;48.200;16.338;2022-12-18T14:42:46;-0.20;99.90
40053;DHT22;25758;48.200;16.338;2022-12-18T15:13:50;-0.20;99.90
40053;DHT22;25758;48.200;16.338;2022-12-18T15:16:17;-0.20;99.90
40053;DHT22;25758;48.200;16.338;2022-12-18T15:18:43;-0.20;99.90
40053;DHT22;25758;48.200;16.338;2022-12-18T15:24:40;-0.20;99.90
40053;DHT22;25758;48.200;16.338;2022-12-18T15:27:35;-0.20;99.90
40053;DHT22;25758;48.200;16.338;2022-12-18T15:33:16;-0.20;99.90
40053;DHT22;25758;48.200;16.338;2022-12-18T15:35:56;-0.20;99.90
40053;DHT22;25758;48.200;16.338;2022-12-18T15:38:22;-0.30;99.90
40053;DHT22;25758;48.200;16.338;2022-12-18T15:40:53;-0.20;99.90
40053;DHT22;25758;48.200;16.338;2022-12-18T15:43:21;-0.20;99.90
40053;DHT22;25758;48.200;16.338;2022-12-18T15:46:10;-0.30;99.90
40053;DHT22;25758;48.200;16.338;2022-12-18T15:52:43;-0.30;99.90
40053;DHT22;25758;48.200;16.338;2022-12-18T15:55:14;-0.20;99.90
40053;DHT22;25758;48.200;16.338;2022-12-18T15:57:59;-0.20;99.90
40053;DHT22;25758;48.200;16.338;2022-12-18T16:00:35;-0.20;99.90
40053;DHT22;25758;48.200;16.338;2022-12-18T16:29:39;-0.10;99.90
40053;DHT22;25758;48.200;16.338;2022-12-18T16:32:05;0.00;99.90
40053;DHT22;25758;48.200;16.338;2022-12-18T16:34:34;0.00;99.90
40053;DHT22;25758;48.200;16.338;2022-12-18T16:40:40;0.10;99.90
40053;DHT22;25758;48.200;16.338;2022-12-18T16:46:48;0.10;99.90
40053;DHT22;25758;48.200;16.338;2022-12-18T16:49:16;0.10;99.90
40053;DHT22;25758;48.200;16.338;2022-12-18T16:51:43;0.10;99.90
40053;DHT22;25758;48.200;16.338;2022-12-18T16:54:09;0.10;99.90
40053;DHT22;25758;48.200;16.338;2022-12-18T17:02:35;0.20;99.90
40053;DHT22;25758;48.200;16.338;2022-12-18T17:05:01;0.10;99.90
40053;DHT22;25758;48.200;16.338;2022-12-18T17:18:02;0.10;99.90
40053;DHT22;25758;48.200;16.338;2022-12-18T17:20:47;0.10;99.90
40053;DHT22;25758;48.200;16.338;2022-12-18T17:23:13;0.10;99.90
40053;DHT22;25758;48.200;16.338;2022-12-18T17:25:39;0.10;99.90
40053;DHT22;25758;48.200;16.338;2022-12-18T17:28:05;0.10;99.90
40053;DHT22;25758;48.200;16.338;2022-12-18T17:30:37;0.10;99.90
40053;DHT22;25758;48.200;16.338;2022-12-18T17:33:03;0.10;99.90
40053;DHT22;25758;48.200;16.338;2022-12-18T17:35:29;0.10;99.90
40053;DHT22;25758;48.200;16.338;2022-12-18T17:37:55;0.10;99.90
40053;DHT22;25758;48.200;16.338;2022-12-18T17:40:21;0.10;99.90
40053;DHT22;25758;48.200;16.338;2022-12-18T18:00:32;0.20;99.90
40053;DHT22;25758;48.200;16.338;2022-12-18T18:02:58;0.20;99.90
40053;DHT22;25758;48.200;16.338;2022-12-18T18:05:24;0.10;99.90
40053;DHT22;25758;48.200;16.338;2022-12-18T18:18:17;0.20;99.90
40053;DHT22;25758;48.200;16.338;2022-12-18T18:27:30;0.20;99.90
40053;DHT22;25758;48.200;16.338;2022-12-18T18:29:56;0.20;99.90
40053;DHT22;25758;48.200;16.338;2022-12-18T18:32:22;0.30;99.90
40053;DHT22;25758;48.200;16.338;2022-12-18T18:34:48;0.30;99.90
40053;DHT22;25758;48.200;16.338;2022-12-18T18:37:15;0.40;99.90
40053;DHT22;25758;48.200;16.338;2022-12-18T18:39:41;0.40;99.90
40053;DHT22;25758;48.200;16.338;2022-12-18T18:48:48;0.40;99.90
40053;DHT22;25758;48.200;16.338;2022-12-18T18:51:16;0.40;99.90
40053;DHT22;25758;48.200;16.338;2022-12-18T19:00:24;0.40;99.90
40053;DHT22;25758;48.200;16.338;2022-12-18T19:03:15;0.40;99.90
40053;DHT22;25758;48.200;16.338;2022-12-18T19:16:12;0.30;99.90
40053;DHT22;25758;48.200;16.338;2022-12-18T19:18:44;0.20;99.90
40053;DHT22;25758;48.200;16.338;2022-12-18T19:21:13;0.20;99.90
40053;DHT22;25758;48.200;16.338;2022-12-18T19:23:39;0.20;99.90
40053;DHT22;25758;48.200;16.338;2022-12-18T19:36:45;0.20;99.90
40053;DHT22;25758;48.200;16.338;2022-12-18T19:39:14;0.20;99.90
40053;DHT22;25758;48.200;16.338;2022-12-18T19:41:41;0.20;99.90
40053;DHT22;25758;48.200;16.338;2022-12-18T19:58:02;0.20;99.90
40053;DHT22;25758;48.200;16.338;2022-12-18T20:00:28;0.20;99.90
40053;DHT22;25758;48.200;16.338;2022-12-18T20:03:32;0.20;99.90
40053;DHT22;25758;48.200;16.338;2022-12-18T20:06:30;0.20;99.90
40053;DHT22;25758;48.200;16.338;2022-12-18T20:12:09;0.20;99.90
40053;DHT22;25758;48.200;16.338;2022-12-18T20:14:36;0.20;99.90
40053;DHT22;25758;48.200;16.338;2022-12-18T20:17:02;0.20;99.90
40053;DHT22;25758;48.200;16.338;2022-12-18T20:22:48;0.20;99.90
40053;DHT22;25758;48.200;16.338;2022-12-18T20:25:14;0.10;99.90
40053;DHT22;25758;48.200;16.338;2022-12-18T20:34:42;0.20;99.90
40053;DHT22;25758;48.200;16.338;2022-12-18T20:37:26;0.20;99.90
40053;DHT22;25758;48.200;16.338;2022-12-18T20:39:52;0.30;99.90
40053;DHT22;25758;48.200;16.338;2022-12-18T20:42:18;0.20;99.90
40053;DHT22;25758;48.200;16.338;2022-12-18T20:48:40;0.30;99.90
40053;DHT22;25758;48.200;16.338;2022-12-18T21:09:05;0.40;99.90
40053;DHT22;25758;48.200;16.338;2022-12-18T21:11:32;0.40;99.90
40053;DHT22;25758;48.200;16.338;2022-12-18T21:17:42;0.40;99.90
40053;DHT22;25758;48.200;16.338;2022-12-18T21:20:14;0.40;99.90
40053;DHT22;25758;48.200;16.338;2022-12-18T21:22:40;0.40;99.90
40053;DHT22;25758;48.200;16.338;2022-12-18T21:25:06;0.30;99.90
40053;DHT22;25758;48.200;16.338;2022-12-18T21:34:26;0.40;99.90
40053;DHT22;25758;48.200;16.338;2022-12-18T22:11:24;0.20;99.90
40053;DHT22;25758;48.200;16.338;2022-12-18T22:21:02;0.20;99.90
40053;DHT22;25758;48.200;16.338;2022-12-18T22:23:56;0.10;99.90
40053;DHT22;25758;48.200;16.338;2022-12-18T22:26:24;0.10;99.90
40053;DHT22;25758;48.200;16.338;2022-12-18T22:28:50;0.40;99.90
40053;DHT22;25758;48.200;16.338;2022-12-18T22:35:06;0.10;99.90
40053;DHT22;25758;48.200;16.338;2022-12-18T22:37:32;0.10;99.90
40053;DHT22;25758;48.200;16.338;2022-12-18T22:39:58;0.00;99.90
